Time;durP1;ratioP1;P1;durP2;ratioP2;P2;SDS_P1;SDS_P2;PMS_P1;PMS_P2;Temp;Humidity;BMP_temperature;BMP_pressure;BME280_temperature;BME280_humidity;BME280_pressure;Samples;Min_cycle;Max_cycle;Signal;HPM_P1;HPM_P2
2023/02/23 00:01:48;;;;;;;8.77;6.40;;;8.20;99.90;;;;;;5066624;28;20024;-77
2023/02/23 00:04:14;;;;;;;8.52;6.18;;;8.30;99.90;;;;;;5068068;28;20485;-77
2023/02/23 00:06:40;;;;;;;9.73;6.95;;;8.30;99.90;;;;;;5069515;28;20035;-77
2023/02/23 00:09:11;;;;;;;9.45;7.18;;;8.30;99.90;;;;;;5068786;28;20469;-77
2023/02/23 00:11:36;;;;;;;8.63;6.45;;;8.20;99.90;;;;;;5066949;28;20068;-77
2023/02/23 00:14:02;;;;;;;8.38;6.38;;;8.20;99.90;;;;;;5066406;28;20027;-77
2023/02/23 00:16:28;;;;;;;9.52;7.10;;;8.20;99.90;;;;;;5065255;28;20044;-77
2023/02/23 00:18:59;;;;;;;9.15;6.38;;;8.20;99.90;;;;;;5061312;28;20025;-77
2023/02/23 00:21:31;;;;;;;9.32;6.05;;;8.10;99.90;;;;;;5063664;28;20033;-76
2023/02/23 00:24:03;;;;;;;8.00;6.32;;;8.00;99.90;;;;;;5079820;28;20401;-76
2023/02/23 00:26:33;;;;;;;9.15;6.32;;;8.00;99.90;;;;;;5069376;28;20028;-78
2023/02/23 00:29:01;;;;;;;8.60;6.10;;;7.90;99.90;;;;;;5051139;28;20052;-77
2023/02/23 00:31:28;;;;;;;8.52;6.32;;;7.80;99.90;;;;;;5069436;28;20032;-78
2023/02/23 00:33:56;;;;;;;10.43;6.43;;;7.80;99.90;;;;;;5068479;28;20081;-77
2023/02/23 00:36:24;;;;;;;8.02;5.90;;;7.70;99.90;;;;;;5068706;28;20484;-77
2023/02/23 00:38:55;;;;;;;8.00;6.03;;;7.70;99.90;;;;;;5066796;28;20117;-76
2023/02/23 00:41:24;;;;;;;7.70;6.45;;;7.60;99.90;;;;;;5050659;28;20028;-77
2023/02/23 00:43:53;;;;;;;8.02;5.82;;;7.60;99.90;;;;;;5068774;28;20178;-77
2023/02/23 00:46:20;;;;;;;9.43;5.97;;;7.50;99.90;;;;;;5076232;28;20037;-77
2023/02/23 00:48:48;;;;;;;7.75;5.47;;;7.50;99.90;;;;;;5068488;28;20048;-77
2023/02/23 00:51:15;;;;;;;8.38;6.10;;;7.50;99.90;;;;;;5069304;28;20512;-78
2023/02/23 00:53:41;;;;;;;8.40;5.95;;;7.50;99.90;;;;;;5067203;28;20108;-77
2023/02/23 00:56:09;;;;;;;10.50;7.03;;;7.40;99.90;;;;;;5070207;28;20086;-77
2023/02/23 00:58:35;;;;;;;7.85;5.78;;;7.50;99.90;;;;;;5051355;28;20044;-77
2023/02/23 01:01:08;;;;;;;7.88;5.45;;;7.40;99.90;;;;;;5053098;28;20078;-77
2023/02/23 01:03:35;;;;;;;8.43;6.82;;;7.40;99.90;;;;;;5061345;28;20121;-77
2023/02/23 01:06:05;;;;;;;9.35;5.85;;;7.40;99.90;;;;;;5051036;28;20028;-77
2023/02/23 01:08:36;;;;;;;8.43;6.18;;;7.50;99.90;;;;;;5050668;28;20111;-78
2023/02/23 01:11:10;;;;;;;9.18;6.65;;;7.60;99.90;;;;;;5071542;28;20124;-78
2023/02/23 01:13:37;;;;;;;9.70;6.73;;;7.60;99.90;;;;;;5065478;28;20032;-77
2023/02/23 01:16:09;;;;;;;9.70;6.57;;;7.70;99.90;;;;;;5056396;28;20029;-76
2023/02/23 01:18:37;;;;;;;10.10;6.13;;;7.70;99.90;;;;;;5070214;28;20107;-77
2023/02/23 01:21:06;;;;;;;9.57;6.50;;;7.80;99.90;;;;;;5057084;28;20099;-78
2023/02/23 01:23:32;;;;;;;9.98;6.90;;;7.70;99.90;;;;;;5072066;28;20031;-77
2023/02/23 01:25:58;;;;;;;11.02;7.00;;;7.70;99.90;;;;;;5081423;28;20056;-77
2023/02/23 01:28:24;;;;;;;10.98;7.95;;;7.60;99.90;;;;;;5055293;28;20042;-77
2023/02/23 01:30:49;;;;;;;12.82;8.10;;;7.60;99.90;;;;;;5053604;28;20021;-77
2023/02/23 01:33:15;;;;;;;12.23;7.38;;;7.60;99.90;;;;;;5055332;28;20528;-77
2023/02/23 01:35:42;;;;;;;12.82;7.63;;;7.60;99.90;;;;;;5072126;28;20125;-77
2023/02/23 01:38:09;;;;;;;9.70;7.35;;;7.60;99.90;;;;;;5067037;28;20408;-77
2023/02/23 01:40:37;;;;;;;10.05;6.93;;;7.50;99.90;;;;;;5067457;28;20036;-77
2023/02/23 01:43:24;;;;;;;9.13;6.43;;;7.50;99.90;;;;;;5066325;28;20039;-77
2023/02/23 01:45:59;;;;;;;10.18;6.95;;;7.40;99.90;;;;;;5053160;28;20020;-77
2023/02/23 01:48:26;;;;;;;10.70;7.13;;;7.30;99.90;;;;;;5066959;28;20050;-77
2023/02/23 01:51:06;;;;;;;10.55;6.80;;;7.30;99.90;;;;;;5072892;28;20484;-77
2023/02/23 01:53:37;;;;;;;10.57;7.30;;;7.30;99.90;;;;;;5085317;28;20016;-77
2023/02/23 01:56:19;;;;;;;10.70;7.13;;;7.30;99.90;;;;;;5072204;28;20024;-77
2023/02/23 01:58:51;;;;;;;9.68;7.50;;;7.40;99.90;;;;;;5067163;28;20029;-77
2023/02/23 02:01:17;;;;;;;10.48;7.20;;;7.50;99.90;;;;;;5033966;28;20626;-77
2023/02/23 02:04:05;;;;;;;8.60;7.03;;;7.50;99.90;;;;;;5067819;28;20089;-77
2023/02/23 02:06:34;;;;;;;9.98;7.47;;;7.40;99.90;;;;;;5063148;28;20051;-77
2023/02/23 02:09:09;;;;;;;9.15;6.47;;;7.40;99.90;;;;;;5067457;28;20052;-77
2023/02/23 02:11:36;;;;;;;;;;;7.30;99.90;;;;;;5040099;28;20512;-77
2023/02/23 02:14:27;;;;;;;10.95;7.28;;;7.30;99.90;;;;;;5067612;28;19932;-77
2023/02/23 02:17:06;;;;;;;8.85;6.30;;;7.20;99.90;;;;;;5066612;28;20016;-77
2023/02/23 02:20:13;;;;;;;10.38;6.35;;;7.20;99.90;;;;;;5052565;28;20028;-77
2023/02/23 02:23:07;;;;;;;10.70;6.20;;;7.20;99.90;;;;;;5070037;28;20029;-77
2023/02/23 02:25:43;;;;;;;9.43;6.97;;;7.20;99.90;;;;;;5071196;28;20013;-77
2023/02/23 02:28:21;;;;;;;12.30;7.20;;;7.20;99.90;;;;;;5063518;28;20654;-77
2023/02/23 02:30:52;;;;;;;7.72;6.03;;;7.10;99.90;;;;;;5066408;28;20031;-77
2023/02/23 02:33:49;;;;;;;7.75;6.20;;;7.10;99.90;;;;;;5063475;28;20032;-77
2023/02/23 02:37:16;;;;;;;8.90;6.47;;;7.10;99.90;;;;;;5060472;28;20024;-77
2023/02/23 02:40:16;;;;;;;10.13;6.63;;;7.10;99.90;;;;;;5017765;28;20110;-77
2023/02/23 02:43:11;;;;;;;8.68;6.65;;;7.00;99.90;;;;;;5066112;28;20393;-77
2023/02/23 02:45:40;;;;;;;9.30;6.68;;;7.10;99.90;;;;;;5069605;28;20400;-77
2023/02/23 02:48:47;;;;;;;9.82;7.00;;;7.10;99.90;;;;;;5062573;28;20033;-77
2023/02/23 02:51:24;;;;;;;9.38;7.05;;;7.00;99.90;;;;;;5067589;28;20031;-77
2023/02/23 02:54:35;;;;;;;8.60;6.85;;;7.00;99.90;;;;;;5069316;28;20357;-78
2023/02/23 02:57:03;;;;;;;10.38;7.45;;;7.00;99.90;;;;;;5028302;28;20065;-77
2023/02/23 04:17:43;;;;;;;11.45;8.40;;;7.10;99.90;;;;;;5063118;28;20044;-78
2023/02/23 04:20:11;;;;;;;11.38;9.00;;;7.00;99.90;;;;;;5062782;28;20035;-78
2023/02/23 04:22:37;;;;;;;12.93;8.80;;;7.00;99.90;;;;;;5061203;28;20021;-78
2023/02/23 04:25:05;;;;;;;11.40;8.45;;;7.00;99.90;;;;;;5064679;28;20086;-77
2023/02/23 04:27:31;;;;;;;11.63;8.40;;;7.00;99.90;;;;;;5066888;28;20107;-78
2023/02/23 04:29:57;;;;;;;11.55;7.70;;;7.00;99.90;;;;;;5065615;28;20020;-78
2023/02/23 04:32:22;;;;;;;11.88;8.55;;;7.00;99.90;;;;;;5070048;28;20033;-77
2023/02/23 04:34:48;;;;;;;15.40;9.23;;;7.00;99.90;;;;;;5046990;28;20033;-77
2023/02/23 04:37:14;;;;;;;11.43;8.23;;;7.00;99.90;;;;;;5069327;28;20056;-77
2023/02/23 04:39:41;;;;;;;10.98;8.00;;;7.00;99.90;;;;;;5069589;28;20117;-79
2023/02/23 04:42:08;;;;;;;12.65;9.38;;;7.00;99.90;;;;;;5068162;28;20047;-78
2023/02/23 04:44:34;;;;;;;12.00;7.45;;;6.90;99.90;;;;;;5069292;28;20634;-77
2023/02/23 04:47:00;;;;;;;11.48;8.75;;;6.90;99.90;;;;;;5069440;28;20040;-78
2023/02/23 04:49:26;;;;;;;11.35;8.63;;;6.90;99.90;;;;;;5063511;28;20485;-78
2023/02/23 04:51:52;;;;;;;11.98;8.50;;;7.00;99.90;;;;;;5069445;28;20451;-77
2023/02/23 04:54:18;;;;;;;13.05;8.50;;;6.90;99.90;;;;;;5068694;28;20036;-77
2023/02/23 04:56:43;;;;;;;15.20;9.27;;;6.90;99.90;;;;;;5052775;28;20185;-77
2023/02/23 04:59:09;;;;;;;13.32;9.68;;;6.90;99.90;;;;;;5052455;28;20079;-77
2023/02/23 05:01:36;;;;;;;14.70;9.05;;;7.00;99.90;;;;;;5070325;28;20035;-77
2023/02/23 05:04:01;;;;;;;14.05;9.07;;;7.10;99.90;;;;;;5069918;28;20056;-77
2023/02/23 05:06:27;;;;;;;12.32;8.52;;;7.00;99.90;;;;;;5051391;28;20037;-77
2023/02/23 05:08:53;;;;;;;12.65;9.02;;;7.00;99.90;;;;;;5069545;28;20081;-77
2023/02/23 05:11:19;;;;;;;14.05;8.98;;;7.00;99.90;;;;;;5069246;28;20021;-78
2023/02/23 05:13:45;;;;;;;11.88;8.73;;;7.00;99.90;;;;;;5068621;28;20032;-77
2023/02/23 05:16:10;;;;;;;11.90;8.80;;;7.00;99.90;;;;;;5046879;28;20044;-77
2023/02/23 05:18:36;;;;;;;11.20;7.82;;;6.90;99.90;;;;;;5048347;28;20048;-78
2023/02/23 05:21:05;;;;;;;12.38;8.45;;;6.90;99.90;;;;;;5060076;28;20098;-78
2023/02/23 05:23:35;;;;;;;11.02;7.72;;;6.80;99.90;;;;;;5048694;28;20054;-78
2023/02/23 05:26:08;;;;;;;10.40;7.53;;;6.70;99.90;;;;;;5064487;28;20035;-78
2023/02/23 05:28:35;;;;;;;10.07;7.43;;;6.60;99.90;;;;;;5068980;28;20557;-78
2023/02/23 05:31:03;;;;;;;10.32;7.43;;;6.50;99.90;;;;;;5066883;28;20061;-77
2023/02/23 05:33:30;;;;;;;11.38;7.68;;;6.50;99.90;;;;;;5047331;28;20021;-77
2023/02/23 05:35:57;;;;;;;11.98;8.38;;;6.50;99.90;;;;;;5067504;28;20024;-77
2023/02/23 05:38:23;;;;;;;12.93;8.52;;;6.40;99.90;;;;;;5049591;28;20044;-78
2023/02/23 05:40:48;;;;;;;10.57;8.13;;;6.40;99.90;;;;;;5069064;28;20124;-77
2023/02/23 05:43:16;;;;;;;12.23;8.90;;;6.40;99.90;;;;;;5063211;28;20056;-77
2023/02/23 05:45:43;;;;;;;11.52;8.05;;;6.50;99.90;;;;;;5036900;28;20041;-78
2023/02/23 05:48:11;;;;;;;11.80;8.18;;;6.40;99.90;;;;;;5072842;28;20025;-77
2023/02/23 05:50:37;;;;;;;11.13;7.55;;;6.40;99.90;;;;;;5067172;28;20051;-79
2023/02/23 05:53:04;;;;;;;11.63;7.65;;;6.30;99.90;;;;;;5064556;28;20035;-77
2023/02/23 05:55:30;;;;;;;10.48;7.97;;;6.30;99.90;;;;;;5073469;28;20044;-78
2023/02/23 05:57:56;;;;;;;11.07;7.63;;;6.30;99.90;;;;;;5071293;28;20438;-78
2023/02/23 06:00:22;;;;;;;11.95;8.43;;;6.30;99.90;;;;;;5068778;28;20088;-79
2023/02/23 06:02:51;;;;;;;13.85;8.63;;;6.20;99.90;;;;;;5063439;28;20032;-80
2023/02/23 06:05:17;;;;;;;11.82;8.13;;;6.30;99.90;;;;;;5055118;28;20020;-78
2023/02/23 06:07:42;;;;;;;11.07;8.10;;;6.20;99.90;;;;;;5071376;28;20425;-78
2023/02/23 06:10:09;;;;;;;12.18;8.23;;;6.20;99.90;;;;;;5075871;28;20050;-78
2023/02/23 06:12:34;;;;;;;13.30;8.48;;;6.20;99.90;;;;;;5069255;28;20092;-78
2023/02/23 06:15:00;;;;;;;12.27;8.18;;;6.20;99.90;;;;;;5064134;28;20056;-79
2023/02/23 06:17:26;;;;;;;12.23;8.48;;;6.10;99.90;;;;;;5060218;28;20033;-78
2023/02/23 06:19:52;;;;;;;13.85;8.80;;;6.10;99.90;;;;;;5068735;28;20052;-78
2023/02/23 06:22:17;;;;;;;12.80;9.07;;;6.00;99.90;;;;;;5071202;28;20048;-78
2023/02/23 06:24:43;;;;;;;13.20;9.18;;;6.00;99.90;;;;;;5051788;28;20043;-78
2023/02/23 06:27:09;;;;;;;12.50;8.52;;;6.00;99.90;;;;;;5053936;28;20045;-78
2023/02/23 06:29:37;;;;;;;14.68;8.48;;;6.00;99.90;;;;;;5070873;28;20112;-77
2023/02/23 06:32:03;;;;;;;12.75;9.02;;;6.00;99.90;;;;;;5074105;28;20058;-78
2023/02/23 06:34:29;;;;;;;12.10;8.98;;;6.00;99.90;;;;;;5054919;28;20036;-78
2023/02/23 06:36:55;;;;;;;17.67;11.55;;;6.00;99.90;;;;;;5052628;28;20028;-78
2023/02/23 06:39:21;;;;;;;16.92;10.82;;;6.00;99.90;;;;;;5066064;28;20021;-77
2023/02/23 06:41:47;;;;;;;15.65;11.13;;;6.00;99.90;;;;;;5073157;28;20741;-77
2023/02/23 06:44:12;;;;;;;16.00;11.50;;;6.10;99.90;;;;;;5071219;28;20029;-77
2023/02/23 06:46:38;;;;;;;16.92;10.90;;;6.10;99.90;;;;;;5038985;28;20153;-76
2023/02/23 06:49:04;;;;;;;15.43;11.40;;;6.10;99.90;;;;;;5071283;28;20500;-78
2023/02/23 06:51:30;;;;;;;16.70;10.63;;;6.10;99.90;;;;;;5055952;28;20074;-78
2023/02/23 06:53:56;;;;;;;21.90;13.00;;;6.20;99.90;;;;;;5052110;28;20428;-77
2023/02/23 06:56:22;;;;;;;16.10;11.05;;;6.10;99.90;;;;;;5071987;28;20488;-76
2023/02/23 06:58:48;;;;;;;20.75;11.23;;;6.20;99.90;;;;;;5051355;28;20033;-77
2023/02/23 07:01:15;;;;;;;21.42;13.07;;;6.30;99.90;;;;;;5069381;28;20036;-77
2023/02/23 07:03:41;;;;;;;21.40;14.10;;;6.30;99.90;;;;;;5052614;28;20036;-77
2023/02/23 07:06:08;;;;;;;24.35;14.27;;;6.40;99.90;;;;;;5053538;28;20040;-78
2023/02/23 07:08:34;;;;;;;23.17;13.43;;;6.50;99.90;;;;;;5045632;28;20115;-78
2023/02/23 07:11:12;;;;;;;22.52;14.48;;;6.60;99.90;;;;;;5031970;28;20037;-77
2023/02/23 07:13:38;;;;;;;22.88;14.35;;;6.60;99.90;;;;;;5065478;28;20061;-77
2023/02/23 07:16:05;;;;;;;20.45;13.07;;;6.60;99.90;;;;;;5067911;28;20028;-78
2023/02/23 07:18:31;;;;;;;21.67;13.90;;;6.60;99.90;;;;;;5068002;28;20397;-78
2023/02/23 07:20:57;;;;;;;23.55;14.18;;;6.60;99.90;;;;;;5071304;28;20041;-77
2023/02/23 07:23:23;;;;;;;25.67;15.07;;;6.70;99.90;;;;;;5054402;28;20028;-77
2023/02/23 07:25:50;;;;;;;24.15;14.90;;;6.80;99.90;;;;;;5071628;28;20028;-77
2023/02/23 07:28:16;;;;;;;25.98;14.60;;;6.80;99.90;;;;;;5071331;28;20532;-77
2023/02/23 07:30:42;;;;;;;22.38;15.45;;;6.90;99.90;;;;;;5071366;28;20049;-77
2023/02/23 07:33:08;;;;;;;27.85;15.88;;;7.00;99.90;;;;;;5065007;28;20393;-77
2023/02/23 07:35:33;;;;;;;22.63;15.30;;;7.00;99.90;;;;;;5051535;28;20033;-77
2023/02/23 07:37:59;;;;;;;25.58;17.10;;;7.00;99.90;;;;;;5063954;28;20033;-78
2023/02/23 07:40:25;;;;;;;27.75;16.13;;;7.10;99.90;;;;;;5053187;28;20037;-77
2023/02/23 07:42:51;;;;;;;27.77;16.90;;;7.20;99.90;;;;;;5065456;28;20089;-78
2023/02/23 07:45:17;;;;;;;31.25;18.02;;;7.20;99.90;;;;;;5037148;28;20020;-77
2023/02/23 07:47:43;;;;;;;29.20;16.95;;;7.20;99.90;;;;;;5070798;28;20037;-77
2023/02/23 07:50:11;;;;;;;30.40;17.08;;;7.30;99.90;;;;;;5072373;28;20043;-77
2023/02/23 07:52:39;;;;;;;28.10;17.73;;;7.50;99.90;;;;;;5069441;28;20035;-78
2023/02/23 07:55:06;;;;;;;29.98;17.55;;;7.60;99.90;;;;;;5070312;28;20044;-77
2023/02/23 07:57:33;;;;;;;30.65;17.50;;;7.60;99.90;;;;;;5068130;28;20040;-77
2023/02/23 07:59:59;;;;;;;29.05;16.80;;;7.70;99.90;;;;;;5052665;28;20170;-78
2023/02/23 08:02:27;;;;;;;31.63;17.52;;;7.80;99.90;;;;;;5069312;28;20495;-76
2023/02/23 08:04:53;;;;;;;27.90;17.00;;;7.80;99.90;;;;;;5070400;28;20032;-78
2023/02/23 08:07:20;;;;;;;28.77;17.98;;;7.90;99.90;;;;;;5052882;28;20047;-77
2023/02/23 08:09:47;;;;;;;26.42;16.15;;;7.90;99.90;;;;;;5051736;28;20059;-78
2023/02/23 08:12:14;;;;;;;31.60;18.15;;;8.00;99.90;;;;;;5070765;28;20027;-77
2023/02/23 08:14:41;;;;;;;26.95;17.17;;;8.00;99.90;;;;;;5069311;28;20029;-78
2023/02/23 08:17:07;;;;;;;27.90;17.20;;;8.00;99.90;;;;;;5069589;28;20038;-77
2023/02/23 08:19:33;;;;;;;28.73;17.55;;;8.10;99.90;;;;;;5065140;28;20099;-77
2023/02/23 08:21:59;;;;;;;30.40;17.65;;;8.20;99.90;;;;;;5065730;28;20501;-78
2023/02/23 08:24:26;;;;;;;26.45;15.40;;;8.20;99.90;;;;;;5067482;28;20028;-77
2023/02/23 08:26:52;;;;;;;28.13;16.55;;;8.30;99.90;;;;;;5066865;28;20020;-77
2023/02/23 08:29:18;;;;;;;27.90;17.90;;;8.30;99.90;;;;;;5064897;28;20045;-77
2023/02/23 08:31:43;;;;;;;31.45;17.67;;;8.30;99.90;;;;;;5068043;28;20123;-78
2023/02/23 08:34:19;;;;;;;30.17;17.98;;;8.30;99.90;;;;;;5060662;28;20033;-77
2023/02/23 08:36:45;;;;;;;;;;;8.40;99.90;;;;;;5062057;28;20017;-77
2023/02/23 08:39:11;;;;;;;;;;;8.40;99.90;;;;;;5061060;28;19923;-78
2023/02/23 08:41:40;;;;;;;;;;;8.40;99.90;;;;;;5062501;28;20419;-77
2023/02/23 08:44:06;;;;;;;28.75;18.10;;;8.40;99.90;;;;;;5059533;28;19949;-77
2023/02/23 08:46:32;;;;;;;30.10;17.75;;;8.50;99.90;;;;;;5059630;28;20063;-77
2023/02/23 08:48:57;;;;;;;30.10;18.80;;;8.50;99.90;;;;;;5064496;28;20037;-77
2023/02/23 08:51:24;;;;;;;30.10;18.65;;;8.60;99.90;;;;;;5057021;28;20020;-77
2023/02/23 08:53:49;;;;;;;32.80;18.63;;;8.70;99.90;;;;;;5063055;28;20670;-76
2023/02/23 08:56:15;;;;;;;30.83;18.50;;;8.70;99.90;;;;;;5066448;28;20074;-77
2023/02/23 08:58:42;;;;;;;28.00;18.02;;;8.80;99.90;;;;;;5065867;28;20644;-78
2023/02/23 09:01:16;;;;;;;32.40;18.30;;;8.80;99.90;;;;;;5065280;28;20037;-77
2023/02/23 09:03:42;;;;;;;36.45;18.52;;;8.90;99.90;;;;;;5066858;28;20051;-76
2023/02/23 09:06:12;;;;;;;35.50;19.70;;;9.00;99.90;;;;;;5068395;28;20028;-77
2023/02/23 09:08:38;;;;;;;34.40;20.25;;;9.10;99.90;;;;;;5064252;28;20070;-77
2023/02/23 09:11:05;;;;;;;36.30;20.70;;;9.20;99.90;;;;;;5061522;28;20037;-77
2023/02/23 09:13:31;;;;;;;36.40;20.52;;;9.30;99.90;;;;;;5065288;28;20130;-77
2023/02/23 09:15:57;;;;;;;36.05;21.13;;;9.30;99.90;;;;;;5063164;28;20019;-77
2023/02/23 09:18:28;;;;;;;37.03;20.38;;;9.40;99.90;;;;;;5063701;28;20477;-77
2023/02/23 09:20:54;;;;;;;37.35;20.70;;;9.40;99.90;;;;;;5067758;28;20041;-77
2023/02/23 09:23:20;;;;;;;36.97;21.65;;;9.50;99.90;;;;;;5066525;28;20089;-77
2023/02/23 09:25:45;;;;;;;43.22;22.30;;;9.60;99.90;;;;;;5070838;28;20024;-77
2023/02/23 09:28:13;;;;;;;39.00;21.38;;;9.70;99.90;;;;;;5071197;28;20131;-77
2023/02/23 09:30:41;;;;;;;33.55;19.08;;;9.80;99.90;;;;;;5082937;28;20074;-77
2023/02/23 09:33:07;;;;;;;31.75;18.77;;;9.80;99.90;;;;;;5067658;28;20081;-77
2023/02/23 09:35:35;;;;;;;27.00;16.52;;;9.80;99.90;;;;;;5068961;28;20048;-77
2023/02/23 09:38:02;;;;;;;35.30;19.92;;;9.90;99.90;;;;;;5067341;28;20493;-77
2023/02/23 09:40:51;;;;;;;39.63;21.40;;;9.90;99.90;;;;;;5064997;28;20160;-77
2023/02/23 09:43:43;;;;;;;39.60;22.58;;;10.00;99.90;;;;;;5064563;28;20117;-77
2023/02/23 09:46:37;;;;;;;35.25;20.83;;;10.00;99.90;;;;;;5068675;28;20025;-77
2023/02/23 09:49:10;;;;;;;40.67;22.27;;;10.00;99.90;;;;;;5066968;28;20403;-77
2023/02/23 09:51:40;;;;;;;39.75;21.98;;;10.10;99.90;;;;;;5069240;28;20043;-77
2023/02/23 09:54:10;;;;;;;42.45;23.38;;;10.20;99.90;;;;;;5066277;28;20032;-77
2023/02/23 09:56:47;;;;;;;45.00;24.38;;;10.30;99.90;;;;;;5068346;28;20041;-77
2023/02/23 09:59:16;;;;;;;43.20;23.65;;;10.40;99.90;;;;;;5067383;28;20028;-77
2023/02/23 10:01:48;;;;;;;43.97;23.35;;;10.50;99.90;;;;;;5069218;28;20438;-77
2023/02/23 10:04:34;;;;;;;40.85;23.83;;;10.60;99.90;;;;;;5066339;28;20029;-77
2023/02/23 10:07:28;;;;;;;45.95;24.10;;;10.60;99.90;;;;;;5068876;28;20039;-78
2023/02/23 10:10:03;;;;;;;41.72;23.52;;;10.70;99.90;;;;;;5098982;28;20021;-78
2023/02/23 10:12:34;;;;;;;41.65;23.40;;;10.80;99.90;;;;;;5069741;28;20074;-77
2023/02/23 10:15:05;;;;;;;38.17;22.23;;;11.00;99.90;;;;;;5067500;28;20044;-77
2023/02/23 10:17:46;;;;;;;41.05;24.77;;;11.10;99.90;;;;;;5068924;28;20036;-77
2023/02/23 10:20:56;;;;;;;41.88;24.08;;;11.40;99.90;;;;;;5067440;28;20117;-77
2023/02/23 10:23:40;;;;;;;39.33;23.23;;;11.60;99.90;;;;;;5026768;28;20554;-77
2023/02/23 10:26:12;;;;;;;43.10;23.55;;;11.70;99.90;;;;;;5070201;28;20037;-77
2023/02/23 10:28:38;;;;;;;43.13;24.70;;;11.70;99.90;;;;;;5071003;28;20033;-77
2023/02/23 10:31:33;;;;;;;48.80;24.23;;;11.80;99.90;;;;;;5071140;28;20041;-77
2023/02/23 10:34:04;;;;;;;45.70;24.65;;;11.70;99.90;;;;;;5066672;28;20023;-76
2023/02/23 10:36:35;;;;;;;44.78;23.42;;;11.60;99.90;;;;;;5072721;28;20119;-78
2023/02/23 10:39:04;;;;;;;42.00;22.95;;;11.50;99.90;;;;;;5070685;28;20024;-77
2023/02/23 10:41:30;;;;;;;38.20;22.35;;;11.60;99.90;;;;;;5054325;28;20400;-77
2023/02/23 10:43:57;;;;;;;42.03;23.42;;;11.60;99.90;;;;;;5061704;28;20037;-77
2023/02/23 10:46:39;;;;;;;36.53;21.73;;;11.70;99.90;;;;;;5065658;28;20041;-78
2023/02/23 10:49:06;;;;;;;37.75;23.17;;;11.80;99.90;;;;;;5063740;28;20030;-76
2023/02/23 10:51:38;;;;;;;35.78;21.38;;;11.80;99.90;;;;;;5052132;28;20115;-78
2023/02/23 10:54:35;;;;;;;38.78;21.95;;;11.80;99.90;;;;;;5067083;28;20036;-77
2023/02/23 10:57:02;;;;;;;38.00;21.38;;;11.90;99.90;;;;;;5067994;28;20024;-77
2023/02/23 10:59:27;;;;;;;36.00;20.60;;;11.80;99.90;;;;;;5066189;28;20991;-78
2023/02/23 11:01:53;;;;;;;32.30;20.20;;;11.70;99.90;;;;;;5067869;28;20036;-76
2023/02/23 11:04:27;;;;;;;35.45;20.63;;;11.80;99.90;;;;;;5067447;28;20021;-76
2023/02/23 11:07:13;;;;;;;39.88;22.00;;;11.70;99.90;;;;;;5057812;28;20032;-77
2023/02/23 11:09:40;;;;;;;;;;;11.70;99.90;;;;;;5092475;28;20041;-76
2023/02/23 11:12:24;;;;;;;42.65;21.88;;;11.70;99.90;;;;;;5059619;28;19920;-78
2023/02/23 11:14:54;;;;;;;34.50;20.80;;;11.70;99.90;;;;;;5060469;28;20116;-78
2023/02/23 11:17:28;;;;;;;34.17;21.17;;;11.60;99.90;;;;;;5065034;28;20576;-78
2023/02/23 11:20:01;;;;;;;34.20;20.65;;;11.60;99.90;;;;;;5060802;28;20108;-77
2023/02/23 11:22:30;;;;;;;36.35;18.92;;;11.70;99.90;;;;;;5046273;28;20659;-78
2023/02/23 11:24:56;;;;;;;36.55;22.17;;;11.60;99.90;;;;;;5063773;28;20052;-77
2023/02/23 11:27:25;;;;;;;33.28;20.80;;;11.60;99.90;;;;;;5063810;28;20044;-77
2023/02/23 11:29:55;;;;;;;34.63;19.10;;;11.60;99.90;;;;;;5062307;28;20509;-77
2023/02/23 11:32:32;;;;;;;34.10;19.63;;;11.60;99.90;;;;;;5060417;28;20535;-77
2023/02/23 11:35:32;;;;;;;33.75;20.23;;;11.60;99.90;;;;;;5057011;28;20041;-77
2023/02/23 11:37:58;;;;;;;31.75;18.20;;;11.50;99.90;;;;;;5060829;28;20595;-77
2023/02/23 11:40:33;;;;;;;30.40;19.17;;;11.40;99.90;;;;;;5062831;28;20115;-78
2023/02/23 11:43:07;;;;;;;27.75;17.27;;;11.40;99.90;;;;;;5044798;28;20043;-78
2023/02/23 11:45:45;;;;;;;27.40;16.70;;;11.20;99.90;;;;;;5090147;28;20048;-77
2023/02/23 11:48:25;;;;;;;30.67;18.05;;;11.20;99.90;;;;;;5061105;28;20032;-77
2023/02/23 11:50:52;;;;;;;31.55;16.80;;;11.10;99.90;;;;;;5059947;28;20479;-77
2023/02/23 11:53:27;;;;;;;29.92;17.67;;;11.10;99.90;;;;;;5062497;28;20033;-77
2023/02/23 11:55:56;;;;;;;30.38;16.58;;;11.00;99.90;;;;;;5034057;28;20029;-77
2023/02/23 11:58:38;;;;;;;30.52;16.85;;;11.00;99.90;;;;;;5064868;28;20032;-77
2023/02/23 12:01:12;;;;;;;27.67;16.48;;;10.90;99.90;;;;;;5065021;28;20060;-78
2023/02/23 12:03:46;;;;;;;30.33;18.35;;;10.90;99.90;;;;;;5054221;28;20049;-77
2023/02/23 12:06:34;;;;;;;31.58;17.63;;;10.90;99.90;;;;;;5061185;28;20056;-77
2023/02/23 12:09:28;;;;;;;28.90;17.55;;;10.90;99.90;;;;;;5061515;28;20847;-77
2023/02/23 12:11:58;;;;;;;29.38;16.83;;;10.90;99.90;;;;;;5051907;28;20527;-75
2023/02/23 12:14:50;;;;;;;30.45;18.42;;;10.90;99.90;;;;;;5062512;28;20024;-78
2023/02/23 12:17:24;;;;;;;28.90;17.90;;;10.90;99.90;;;;;;5065819;28;20080;-78
2023/02/23 12:20:09;;;;;;;31.27;18.52;;;11.00;99.90;;;;;;5063505;28;20484;-77
2023/02/23 12:22:41;;;;;;;31.88;17.00;;;11.00;99.90;;;;;;5062085;28;20020;-77
2023/02/23 12:25:33;;;;;;;34.33;19.13;;;11.00;99.90;;;;;;5055433;28;20021;-78
2023/02/23 12:28:08;;;;;;;29.05;17.48;;;11.00;99.90;;;;;;5060541;28;20941;-78
2023/02/23 12:30:55;;;;;;;28.27;17.55;;;11.10;99.90;;;;;;5062351;28;20102;-77
2023/02/23 12:33:28;;;;;;;37.40;21.13;;;11.10;99.90;;;;;;5061779;28;20063;-77
2023/02/23 12:36:19;;;;;;;31.58;19.17;;;11.00;99.90;;;;;;5060319;28;20070;-77
2023/02/23 12:38:57;;;;;;;39.92;20.70;;;11.00;99.90;;;;;;5058833;28;20028;-77
2023/02/23 12:41:46;;;;;;;36.92;20.75;;;10.90;99.90;;;;;;5062503;28;20030;-77
2023/02/23 12:44:30;;;;;;;33.97;20.35;;;10.90;99.90;;;;;;5059719;28;20029;-77
2023/02/23 12:47:18;;;;;;;34.28;19.83;;;10.90;99.90;;;;;;5063932;28;20028;-77
2023/02/23 12:49:50;;;;;;;37.78;20.20;;;10.70;99.90;;;;;;5062837;28;20055;-76
2023/02/23 12:52:21;;;;;;;35.63;19.65;;;10.70;99.90;;;;;;5063852;28;20484;-76
2023/02/23 12:54:47;;;;;;;35.38;19.75;;;10.70;99.90;;;;;;5063980;28;20050;-76
2023/02/23 12:57:32;;;;;;;34.80;18.70;;;10.60;99.90;;;;;;5059535;28;20126;-77
2023/02/23 13:00:53;;;;;;;35.65;20.02;;;10.50;99.90;;;;;;5060714;28;20036;-75
2023/02/23 13:03:29;;;;;;;33.10;18.48;;;10.50;99.90;;;;;;5010999;28;20044;-78
2023/02/23 13:06:21;;;;;;;34.75;19.42;;;10.40;99.90;;;;;;5059984;28;20032;-77
2023/02/23 13:09:18;;;;;;;32.95;19.60;;;10.40;99.90;;;;;;5060816;28;20415;-78
2023/02/23 13:12:06;;;;;;;36.25;19.50;;;10.40;99.90;;;;;;5062369;28;20394;-79
2023/02/23 13:14:42;;;;;;;33.83;18.90;;;10.40;99.90;;;;;;5053540;28;20029;-79
2023/02/23 13:17:39;;;;;;;37.88;20.45;;;10.40;99.90;;;;;;5062916;28;20138;-77
2023/02/23 13:20:24;;;;;;;39.55;20.65;;;10.50;99.90;;;;;;5051543;28;20698;-76
2023/02/23 13:23:25;;;;;;;31.33;18.97;;;10.60;99.90;;;;;;5057960;28;20028;-77
2023/02/23 13:26:27;;;;;;;34.30;19.75;;;10.50;99.90;;;;;;5001208;28;20121;-77
2023/02/23 13:29:12;;;;;;;34.55;19.88;;;10.50;99.90;;;;;;5050795;28;20078;-77
2023/02/23 13:31:40;;;;;;;33.03;19.75;;;10.50;99.90;;;;;;5056839;28;20045;-77
2023/02/23 13:34:19;;;;;;;33.90;18.75;;;10.50;99.90;;;;;;5061684;28;20048;-77
2023/02/23 13:36:45;;;;;;;32.58;19.45;;;10.60;99.90;;;;;;5056176;28;20110;-77
2023/02/23 13:39:38;;;;;;;35.80;19.25;;;10.60;99.90;;;;;;5057658;28;20032;-77
2023/02/23 13:42:17;;;;;;;32.92;18.88;;;10.60;99.90;;;;;;5057926;28;20032;-78
2023/02/23 13:44:52;;;;;;;35.58;18.77;;;10.60;99.90;;;;;;5063021;28;20029;-77
2023/02/23 13:47:40;;;;;;;29.17;18.55;;;10.60;99.90;;;;;;5060490;28;20029;-78
2023/02/23 13:50:08;;;;;;;31.92;18.80;;;10.60;99.90;;;;;;5063508;28;20039;-78
2023/02/23 13:52:43;;;;;;;30.10;18.30;;;10.60;99.90;;;;;;5061774;28;20722;-77
2023/02/23 13:55:24;;;;;;;43.03;26.38;;;10.60;99.90;;;;;;5046171;28;20037;-77
2023/02/23 13:58:01;;;;;;;31.77;19.27;;;10.60;99.90;;;;;;5063929;28;20021;-77
2023/02/23 14:00:28;;;;;;;37.28;20.63;;;10.50;99.90;;;;;;5078893;28;21541;-78
2023/02/23 14:02:54;;;;;;;32.70;18.95;;;10.40;99.90;;;;;;5063301;28;20025;-77
2023/02/23 14:05:23;;;;;;;35.22;19.35;;;10.50;99.90;;;;;;5060229;28;20097;-77
2023/02/23 14:08:03;;;;;;;36.53;19.38;;;10.40;99.90;;;;;;5041671;28;20124;-76
2023/02/23 14:10:40;;;;;;;38.35;19.77;;;10.40;99.90;;;;;;5068265;28;20049;-78
2023/02/23 14:13:29;;;;;;;38.28;19.13;;;10.50;99.90;;;;;;5064797;28;20025;-77
2023/02/23 14:16:13;;;;;;;34.08;19.20;;;10.50;99.90;;;;;;5045052;28;20074;-76
2023/02/23 14:19:08;;;;;;;33.72;19.77;;;10.60;99.90;;;;;;5063649;28;20104;-80
2023/02/23 14:21:42;;;;;;;31.35;18.33;;;10.60;99.90;;;;;;5060786;28;20048;-77
2023/02/23 14:24:28;;;;;;;32.63;18.27;;;10.70;99.90;;;;;;5065818;28;20079;-77
2023/02/23 14:27:06;;;;;;;31.83;17.98;;;10.70;99.90;;;;;;5063078;28;20037;-77